Bingley, United Kingdom
Current Conditions -  °F | °C
As of 11:20 PM on Saturday 25 Oct 2014 (Local Time) from EGNM Reporting Station
Few Clouds Few Clouds  
Wind Chill: 50°   Ceiling: Unl
Heat Index: 50°   Visibility: 6mi
Dew Point: 46°   Wind: 15mph
Humidity: 87%   Direction: 210°SSW
Pressure: 29.91"   Gusts: 28mph
Location:  53.85°N, 1.84°W
Report Text: EGNM 252220Z 21013G24KT 180V240 9999 FEW020 10/08 Q1013
Loading
Personal Weather Stations






























Interactive Weather Map
Tropical Storm Tracking
New forecast layout! Learn more

10-Day Weather Forecast

Advertisements
Track Severe Weather on mobile